createdAt,value
2017-09-24T00:00:54.784Z,35.10
2017-09-24T00:03:22.262Z,35.60
2017-09-24T00:05:49.723Z,35.80
2017-09-24T00:08:17.169Z,35.90
2017-09-24T00:10:44.600Z,35.30
2017-09-24T00:13:12.090Z,36.00
2017-09-24T00:15:39.521Z,36.00
2017-09-24T00:18:06.993Z,36.00
2017-09-24T00:20:34.424Z,36.00
2017-09-24T00:23:01.873Z,36.00
2017-09-24T00:25:29.289Z,36.00
2017-09-24T00:27:56.728Z,35.90
2017-09-24T00:30:24.188Z,36.60
2017-09-24T00:32:51.653Z,36.40
2017-09-24T00:35:19.089Z,36.20
2017-09-24T00:37:46.534Z,36.60
2017-09-24T00:40:14.013Z,36.40
2017-09-24T00:42:41.562Z,36.50
2017-09-24T00:45:09.019Z,36.60
2017-09-24T00:47:36.457Z,37.00
2017-09-24T00:50:03.931Z,37.00
2017-09-24T00:52:31.382Z,36.80
2017-09-24T00:54:58.809Z,37.30
2017-09-24T00:57:26.252Z,37.00
2017-09-24T00:59:53.754Z,37.60
2017-09-24T01:02:21.391Z,37.50
2017-09-24T01:04:48.889Z,37.40
2017-09-24T01:07:16.336Z,37.10
2017-09-24T01:09:43.899Z,37.20
2017-09-24T01:12:11.345Z,37.70
2017-09-24T01:14:38.781Z,37.60
2017-09-24T01:17:06.281Z,37.80
2017-09-24T01:19:33.721Z,37.60
2017-09-24T01:22:01.158Z,37.60
2017-09-24T01:24:28.598Z,37.30
2017-09-24T01:26:55.687Z,37.60
2017-09-24T01:29:23.133Z,37.90
2017-09-24T01:31:51.061Z,37.40
2017-09-24T01:34:18.713Z,37.70
2017-09-24T01:36:46.141Z,37.70
2017-09-24T01:39:13.672Z,37.60
2017-09-24T01:41:41.105Z,37.90
2017-09-24T01:44:08.578Z,37.90
2017-09-24T01:46:36.012Z,37.80
2017-09-24T01:49:03.514Z,37.50
2017-09-24T01:51:30.953Z,38.00
2017-09-24T01:53:58.401Z,37.80
2017-09-24T01:56:25.833Z,37.90
2017-09-24T01:58:53.281Z,38.00
2017-09-24T02:01:20.717Z,38.00
2017-09-24T02:03:48.241Z,37.90
2017-09-24T02:06:15.678Z,37.80
2017-09-24T02:08:43.109Z,38.20
2017-09-24T02:11:10.549Z,38.00
2017-09-24T02:13:38.057Z,37.90
2017-09-24T02:16:05.496Z,37.80
2017-09-24T02:18:32.925Z,38.20
2017-09-24T02:21:00.430Z,38.40
2017-09-24T02:23:27.861Z,38.50
2017-09-24T02:25:55.296Z,38.50
2017-09-24T02:28:22.725Z,38.80
2017-09-24T02:30:50.173Z,38.70
2017-09-24T02:33:17.605Z,38.80
2017-09-24T02:35:45.061Z,39.00
2017-09-24T02:38:12.490Z,38.70
2017-09-24T02:40:39.989Z,39.10
2017-09-24T02:43:07.524Z,39.40
2017-09-24T02:45:34.988Z,39.00
2017-09-24T02:48:02.628Z,39.10
2017-09-24T02:50:30.129Z,39.20
2017-09-24T02:52:57.561Z,39.40
2017-09-24T02:55:25.041Z,39.40
2017-09-24T02:57:52.577Z,39.40
2017-09-24T03:00:20.009Z,39.40
2017-09-24T03:02:47.488Z,39.40
2017-09-24T03:05:14.949Z,40.00
2017-09-24T03:07:42.389Z,39.70
2017-09-24T03:10:09.854Z,39.50
2017-09-24T03:12:37.301Z,39.60
2017-09-24T03:15:04.769Z,39.60
2017-09-24T03:17:32.320Z,39.30
2017-09-24T03:19:59.861Z,39.80
2017-09-24T03:22:27.311Z,39.80
2017-09-24T03:24:54.899Z,39.50
2017-09-24T03:27:22.334Z,39.30
2017-09-24T03:29:49.817Z,40.00
2017-09-24T03:32:17.272Z,40.10
2017-09-24T03:34:44.704Z,39.90
2017-09-24T03:37:12.140Z,40.10
2017-09-24T03:39:39.572Z,40.10
2017-09-24T03:42:07.016Z,40.50
2017-09-24T03:44:34.464Z,40.60
2017-09-24T03:47:02.012Z,40.60
2017-09-24T03:49:29.452Z,39.80
2017-09-24T03:51:56.914Z,40.20
2017-09-24T03:54:24.368Z,40.30
2017-09-24T03:56:51.788Z,39.10
2017-09-24T03:59:19.223Z,40.10
2017-09-24T04:01:46.749Z,40.40
2017-09-24T04:04:14.188Z,39.90
2017-09-24T04:06:41.661Z,40.20
2017-09-24T04:09:09.098Z,40.30
2017-09-24T04:11:36.572Z,40.70
2017-09-24T04:14:04.028Z,40.00
2017-09-24T04:16:31.663Z,40.40
2017-09-24T04:18:59.133Z,40.10
2017-09-24T04:21:26.705Z,40.10
2017-09-24T04:23:54.161Z,40.40
2017-09-24T04:26:21.589Z,40.40
2017-09-24T04:28:49.028Z,40.40
2017-09-24T04:31:16.528Z,40.90
2017-09-24T04:33:43.969Z,40.70
2017-09-24T04:36:11.400Z,40.70
2017-09-24T04:38:38.904Z,41.00
2017-09-24T04:41:06.528Z,41.00
2017-09-24T04:43:34.116Z,40.70
2017-09-24T04:46:01.763Z,40.70
2017-09-24T04:48:29.226Z,41.00
2017-09-24T04:50:56.792Z,40.70
2017-09-24T04:53:24.249Z,41.10
2017-09-24T04:55:51.709Z,40.40
2017-09-24T04:58:19.165Z,40.30
2017-09-24T05:00:46.793Z,40.50
2017-09-24T05:03:14.332Z,40.50
2017-09-24T05:05:41.761Z,40.20
2017-09-24T05:08:10.061Z,40.30
2017-09-24T05:10:38.385Z,41.20
2017-09-24T05:13:05.973Z,41.10
2017-09-24T05:15:33.420Z,41.20
2017-09-24T05:18:00.960Z,40.70
2017-09-24T05:20:28.417Z,41.00
2017-09-24T05:22:55.872Z,41.00
2017-09-24T05:25:23.640Z,41.10
2017-09-24T05:27:51.276Z,41.00
2017-09-24T05:30:18.769Z,40.90
2017-09-24T05:32:46.211Z,40.70
2017-09-24T05:35:13.681Z,40.70
2017-09-24T05:37:41.120Z,40.60
2017-09-24T05:40:08.605Z,40.70
2017-09-24T05:42:37.062Z,41.10
2017-09-24T05:45:04.824Z,41.10
2017-09-24T05:47:32.280Z,41.60
2017-09-24T05:49:59.739Z,41.30
2017-09-24T05:52:27.370Z,41.90
2017-09-24T05:54:54.836Z,41.90
2017-09-24T05:57:22.409Z,41.60
2017-09-24T05:59:50.053Z,41.40
2017-09-24T06:02:17.537Z,41.30
2017-09-24T06:04:45.000Z,41.80
2017-09-24T06:07:12.454Z,41.90
2017-09-24T06:09:40.001Z,41.90
2017-09-24T06:12:07.637Z,42.80
2017-09-24T06:14:35.137Z,42.50
2017-09-24T06:17:02.567Z,42.20
2017-09-24T06:19:30.129Z,42.80
2017-09-24T06:21:57.567Z,42.70
2017-09-24T06:24:25.000Z,42.50
2017-09-24T06:26:52.449Z,42.60
2017-09-24T06:29:19.906Z,42.10
2017-09-24T06:31:47.412Z,42.80
2017-09-24T06:34:15.926Z,43.20
2017-09-24T06:36:43.349Z,43.20
2017-09-24T06:39:11.004Z,42.70
2017-09-24T06:41:38.464Z,42.90
2017-09-24T06:44:06.233Z,43.00
2017-09-24T06:46:33.886Z,43.50
2017-09-24T06:49:01.325Z,43.40
2017-09-24T06:51:28.904Z,43.40
2017-09-24T06:53:56.340Z,43.40
2017-09-24T06:56:24.125Z,43.60
2017-09-24T06:58:51.564Z,44.00
2017-09-24T07:01:19.006Z,44.10
2017-09-24T07:03:46.436Z,44.60
2017-09-24T07:06:13.876Z,44.20
2017-09-24T07:08:41.313Z,43.40
2017-09-24T07:11:08.885Z,45.30
2017-09-24T07:13:36.504Z,43.90
2017-09-24T07:16:04.049Z,42.40
2017-09-24T07:18:31.541Z,43.50
2017-09-24T07:20:58.976Z,42.20
2017-09-24T07:23:26.418Z,42.90
2017-09-24T07:25:53.852Z,42.90
2017-09-24T07:28:21.367Z,42.10
2017-09-24T07:30:48.816Z,41.60
2017-09-24T07:33:16.260Z,40.40
2017-09-24T07:35:43.736Z,40.80
2017-09-24T07:38:11.179Z,42.30
2017-09-24T07:40:38.609Z,40.20
2017-09-24T07:43:06.164Z,41.80
2017-09-24T07:45:33.878Z,41.60
2017-09-24T07:48:01.340Z,39.60
2017-09-24T07:50:28.780Z,40.40
2017-09-24T07:52:56.548Z,39.50
2017-09-24T07:55:24.000Z,40.00
2017-09-24T07:57:51.437Z,39.80
2017-09-24T08:00:18.892Z,42.00
2017-09-24T08:02:46.312Z,41.90
2017-09-24T08:05:14.689Z,40.80
2017-09-24T08:07:42.149Z,40.80
2017-09-24T08:10:09.831Z,41.80
2017-09-24T08:12:37.274Z,42.10
2017-09-24T08:15:05.672Z,42.80
2017-09-24T08:17:33.216Z,42.70
2017-09-24T08:20:00.725Z,41.20
2017-09-24T08:22:28.348Z,41.40
2017-09-24T08:24:55.793Z,41.70
2017-09-24T08:27:24.180Z,41.20
2017-09-24T08:29:51.632Z,41.00
2017-09-24T08:32:20.021Z,39.60
2017-09-24T08:34:47.609Z,39.60
2017-09-24T08:37:15.063Z,40.40
2017-09-24T08:39:42.534Z,41.10
2017-09-24T08:42:10.152Z,41.50
2017-09-24T08:44:37.644Z,40.80
2017-09-24T08:47:05.192Z,41.30
2017-09-24T08:49:32.628Z,41.90
2017-09-24T08:52:00.058Z,42.00
2017-09-24T08:54:27.560Z,40.60
2017-09-24T08:56:55.194Z,39.30
2017-09-24T08:59:22.736Z,39.50
2017-09-24T09:01:50.164Z,39.10
2017-09-24T09:04:17.688Z,38.90
2017-09-24T09:06:45.144Z,38.30
2017-09-24T09:09:12.573Z,38.00
2017-09-24T09:11:40.060Z,37.40
2017-09-24T09:14:07.696Z,37.20
2017-09-24T09:16:35.169Z,37.20
2017-09-24T09:19:02.736Z,37.50
2017-09-24T09:21:47.861Z,38.30
2017-09-24T09:24:16.049Z,35.70
2017-09-24T09:26:44.408Z,35.60
2017-09-24T09:29:11.842Z,36.40
2017-09-24T09:31:39.276Z,36.30
2017-09-24T09:34:18.552Z,36.00
2017-09-24T09:36:46.201Z,34.10
2017-09-24T09:39:13.720Z,34.30
2017-09-24T09:41:41.196Z,34.60
2017-09-24T09:47:21.725Z,32.70
2017-09-24T09:49:50.116Z,31.30
2017-09-24T09:52:17.636Z,31.30
2017-09-24T09:54:45.069Z,30.40
2017-09-24T09:57:12.501Z,33.20
2017-09-24T09:59:39.964Z,32.10
2017-09-24T10:02:07.429Z,31.90
2017-09-24T10:04:34.948Z,32.30
2017-09-24T10:07:14.100Z,29.60
2017-09-24T10:09:53.372Z,29.00
2017-09-24T10:12:20.916Z,29.70
2017-09-24T10:14:48.348Z,29.90
2017-09-24T10:17:15.793Z,29.20
2017-09-24T10:19:43.220Z,30.60
2017-09-24T10:22:11.625Z,27.00
2017-09-24T10:24:39.157Z,27.00
2017-09-24T10:27:06.663Z,27.00
2017-09-24T10:29:34.114Z,27.10
2017-09-24T10:32:03.082Z,24.80
2017-09-24T10:34:30.517Z,24.90
2017-09-24T10:36:58.016Z,23.60
2017-09-24T10:39:25.478Z,24.60
2017-09-24T10:41:53.232Z,24.30
2017-09-24T10:44:20.660Z,21.90
2017-09-24T10:46:48.150Z,22.70
2017-09-24T10:49:15.584Z,23.30
2017-09-24T10:51:43.061Z,21.20
2017-09-24T10:54:10.526Z,20.90
2017-09-24T10:56:38.168Z,20.10
2017-09-24T10:59:05.641Z,20.90
2017-09-24T11:01:33.081Z,21.90
2017-09-24T11:04:00.560Z,20.70
2017-09-24T11:06:28.124Z,22.80
2017-09-24T11:08:55.564Z,21.80
2017-09-24T11:11:23.632Z,21.70
2017-09-24T11:13:51.097Z,22.20
2017-09-24T11:16:18.856Z,22.80
2017-09-24T11:18:46.313Z,22.60
2017-09-24T11:21:13.749Z,20.20
2017-09-24T11:23:41.229Z,19.80
2017-09-24T11:26:08.685Z,19.40
2017-09-24T11:28:36.117Z,18.40
2017-09-24T11:31:03.597Z,20.00
2017-09-24T11:33:31.025Z,21.60
2017-09-24T11:35:58.448Z,22.60
2017-09-24T11:38:25.965Z,21.30
2017-09-24T11:40:53.595Z,21.00
2017-09-24T11:43:21.066Z,20.50
2017-09-24T11:45:48.539Z,20.00
2017-09-24T11:48:16.095Z,17.00
2017-09-24T11:50:43.726Z,18.00
2017-09-24T11:53:11.231Z,19.00
2017-09-24T11:55:38.673Z,17.20
2017-09-24T11:58:06.126Z,17.60
2017-09-24T12:00:33.584Z,19.60
2017-09-24T12:03:01.088Z,15.90
2017-09-24T12:05:28.512Z,17.40
2017-09-24T12:07:56.029Z,17.50
2017-09-24T12:10:23.449Z,16.00
2017-09-24T12:12:50.969Z,15.30
2017-09-24T12:15:18.728Z,15.40
2017-09-24T12:17:46.189Z,15.90
2017-09-24T12:20:13.640Z,16.80
2017-09-24T12:22:41.404Z,15.10
2017-09-24T12:25:08.834Z,11.80
2017-09-24T12:27:36.316Z,14.80
2017-09-24T12:30:03.953Z,14.60
2017-09-24T12:32:31.425Z,14.60
2017-09-24T12:34:59.016Z,13.80
2017-09-24T12:37:26.753Z,13.70
2017-09-24T12:39:54.376Z,12.70
2017-09-24T12:42:22.564Z,13.20
2017-09-24T12:44:50.049Z,13.10
2017-09-24T12:47:17.682Z,13.00
2017-09-24T12:49:45.276Z,13.50
2017-09-24T12:52:12.718Z,12.90
2017-09-24T12:54:40.177Z,13.80
2017-09-24T12:57:07.601Z,14.40
2017-09-24T12:59:35.092Z,14.30
2017-09-24T13:02:02.530Z,14.50
2017-09-24T13:04:29.960Z,14.50
2017-09-24T13:06:57.399Z,15.20
2017-09-24T13:09:24.998Z,15.30
2017-09-24T13:11:52.417Z,14.10
2017-09-24T13:14:20.052Z,15.10
2017-09-24T13:16:47.492Z,15.20
2017-09-24T13:19:14.938Z,15.80
2017-09-24T13:21:42.514Z,16.00
2017-09-24T13:24:09.959Z,16.50
2017-09-24T13:26:37.416Z,16.70
2017-09-24T13:29:05.049Z,16.60
2017-09-24T13:31:32.492Z,16.40
2017-09-24T13:34:00.684Z,16.10
2017-09-24T13:36:28.165Z,16.10
2017-09-24T13:38:55.797Z,16.90
2017-09-24T13:41:23.398Z,16.80
2017-09-24T13:43:50.821Z,16.80
2017-09-24T13:46:18.324Z,16.80
2017-09-24T13:48:45.752Z,17.60
2017-09-24T13:51:13.405Z,18.20
2017-09-24T13:53:40.881Z,18.20
2017-09-24T13:56:08.435Z,18.30
2017-09-24T13:58:35.858Z,18.50
2017-09-24T14:01:03.297Z,19.20
2017-09-24T14:03:30.728Z,19.90
2017-09-24T14:05:58.256Z,20.20
2017-09-24T14:08:25.885Z,20.40
2017-09-24T14:10:53.477Z,20.90
2017-09-24T14:13:21.247Z,20.70
2017-09-24T14:15:48.881Z,21.40
2017-09-24T14:18:16.328Z,21.40
2017-09-24T14:20:43.909Z,22.10
2017-09-24T14:23:11.332Z,21.70
2017-09-24T14:25:38.776Z,21.50
2017-09-24T14:28:06.286Z,22.00
2017-09-24T14:30:33.905Z,21.80
2017-09-24T14:33:01.349Z,22.30
2017-09-24T14:35:29.573Z,22.40
2017-09-24T14:37:57.015Z,22.20
2017-09-24T14:40:24.437Z,22.10
2017-09-24T14:42:51.940Z,21.90
2017-09-24T14:45:19.400Z,21.50
2017-09-24T14:47:46.849Z,21.40
2017-09-24T14:50:14.276Z,21.30
2017-09-24T14:52:41.712Z,20.90
2017-09-24T14:55:09.141Z,21.40
2017-09-24T14:57:36.592Z,21.30
2017-09-24T15:00:04.025Z,21.40
2017-09-24T15:02:31.573Z,21.50
2017-09-24T15:04:58.999Z,21.70
2017-09-24T15:07:26.442Z,21.80
2017-09-24T15:09:53.866Z,21.90
2017-09-24T15:12:21.332Z,22.20
2017-09-24T15:14:48.770Z,21.70
2017-09-24T15:17:16.337Z,22.40
2017-09-24T15:19:43.776Z,22.50
2017-09-24T15:22:11.197Z,22.50
2017-09-24T15:24:38.632Z,23.10
2017-09-24T15:27:06.157Z,23.10
2017-09-24T15:29:33.597Z,22.40
2017-09-24T15:32:01.036Z,22.30
2017-09-24T15:34:28.487Z,22.10
2017-09-24T15:36:55.981Z,22.00
2017-09-24T15:39:23.429Z,21.90
2017-09-24T15:41:50.853Z,21.80
2017-09-24T15:44:18.345Z,21.90
2017-09-24T15:46:45.774Z,21.90
2017-09-24T15:49:13.268Z,22.20
2017-09-24T15:51:40.712Z,22.00
2017-09-24T15:54:08.173Z,22.80
2017-09-24T15:56:35.607Z,22.40
2017-09-24T15:59:03.090Z,22.50
2017-09-24T16:01:30.725Z,22.80
2017-09-24T16:03:58.190Z,22.80
2017-09-24T16:06:25.710Z,22.80
2017-09-24T16:08:53.138Z,23.10
2017-09-24T16:11:20.586Z,23.10
2017-09-24T16:13:48.058Z,22.70
2017-09-24T16:16:15.496Z,23.10
2017-09-24T16:18:43.044Z,23.10
2017-09-24T16:21:10.478Z,23.30
2017-09-24T16:23:37.921Z,23.50
2017-09-24T16:26:05.352Z,23.30
2017-09-24T16:28:32.784Z,23.70
2017-09-24T16:31:00.236Z,23.70
2017-09-24T16:33:27.688Z,23.70
2017-09-24T16:35:55.130Z,23.30
2017-09-24T16:38:22.692Z,23.80
2017-09-24T16:40:50.125Z,23.80
2017-09-24T16:43:17.552Z,23.90
2017-09-24T16:45:44.984Z,24.10
2017-09-24T16:48:12.417Z,24.00
2017-09-24T16:50:39.972Z,24.10
2017-09-24T16:53:07.408Z,24.20
2017-09-24T16:55:34.959Z,23.90
2017-09-24T16:58:02.517Z,23.80
2017-09-24T17:00:30.142Z,24.00
2017-09-24T17:02:57.777Z,23.90
2017-09-24T17:05:25.245Z,23.80
2017-09-24T17:07:52.674Z,23.70
2017-09-24T17:10:20.254Z,23.90
2017-09-24T17:12:47.687Z,23.90
2017-09-24T17:15:15.167Z,24.70
2017-09-24T17:17:42.576Z,24.40
2017-09-24T17:20:10.009Z,24.40
2017-09-24T17:22:37.433Z,24.50
2017-09-24T17:25:04.895Z,24.80
2017-09-24T17:27:32.354Z,24.70
2017-09-24T17:29:59.793Z,24.90
2017-09-24T17:32:27.254Z,24.90
2017-09-24T17:34:54.709Z,24.90
2017-09-24T17:37:23.084Z,25.20
2017-09-24T17:39:50.549Z,25.10
2017-09-24T17:42:17.989Z,25.30
2017-09-24T17:44:45.498Z,25.60
2017-09-24T17:47:12.941Z,25.90
2017-09-24T17:49:40.380Z,25.90
2017-09-24T17:52:07.816Z,25.90
2017-09-24T17:54:35.387Z,26.30
2017-09-24T17:57:03.012Z,26.60
2017-09-24T17:59:30.454Z,26.70
2017-09-24T18:01:58.690Z,27.20
2017-09-24T18:04:26.115Z,27.10
2017-09-24T18:06:53.577Z,27.80
2017-09-24T18:09:21.055Z,27.90
2017-09-24T18:11:48.637Z,27.70
2017-09-24T18:14:16.085Z,27.90
2017-09-24T18:16:43.648Z,28.20
2017-09-24T18:19:11.076Z,28.30
2017-09-24T18:21:38.549Z,28.50
2017-09-24T18:24:06.890Z,28.80
2017-09-24T18:26:34.457Z,28.80
2017-09-24T18:29:01.993Z,29.00
2017-09-24T18:31:29.565Z,29.00
2017-09-24T18:33:57.005Z,29.20
2017-09-24T18:36:24.433Z,29.50
2017-09-24T18:38:52.689Z,29.70
2017-09-24T18:41:21.833Z,29.80
2017-09-24T18:43:49.276Z,29.80
2017-09-24T18:46:16.707Z,30.10
2017-09-24T18:48:44.253Z,30.00
2017-09-24T18:51:11.689Z,30.60
2017-09-24T18:53:39.198Z,30.30
2017-09-24T18:56:06.694Z,30.20
2017-09-24T18:58:34.141Z,30.30
2017-09-24T19:01:01.573Z,30.00
2017-09-24T19:03:29.067Z,30.00
2017-09-24T19:05:56.717Z,29.90
2017-09-24T19:08:24.152Z,29.70
2017-09-24T19:10:51.773Z,29.80
2017-09-24T19:13:20.102Z,29.60
2017-09-24T19:15:47.536Z,29.60
2017-09-24T19:18:14.965Z,29.70
2017-09-24T19:20:42.488Z,29.70
2017-09-24T19:23:09.948Z,29.70
2017-09-24T19:25:37.701Z,29.60
2017-09-24T19:28:05.169Z,29.80
2017-09-24T19:30:32.809Z,29.90
2017-09-24T19:33:00.371Z,30.10
2017-09-24T19:35:27.808Z,30.40
2017-09-24T19:37:55.236Z,30.60
2017-09-24T19:40:22.668Z,30.90
2017-09-24T19:42:50.122Z,31.40
2017-09-24T19:45:17.572Z,31.20
2017-09-24T19:47:45.122Z,31.10
2017-09-24T19:50:12.770Z,31.20
2017-09-24T19:52:40.227Z,31.40
2017-09-24T19:55:07.713Z,31.60
2017-09-24T19:57:35.158Z,32.00
2017-09-24T20:00:02.594Z,32.00
2017-09-24T20:02:30.067Z,32.50
2017-09-24T20:04:57.566Z,32.50
2017-09-24T20:07:25.752Z,33.00
2017-09-24T20:09:53.400Z,33.00
2017-09-24T20:12:20.833Z,33.00
2017-09-24T20:14:48.364Z,33.40
2017-09-24T20:17:15.801Z,33.70
2017-09-24T20:19:43.304Z,34.10
2017-09-24T20:22:11.036Z,34.10
2017-09-24T20:24:38.480Z,34.00
2017-09-24T20:27:05.913Z,34.50
2017-09-24T20:29:33.345Z,34.90
2017-09-24T20:32:00.788Z,34.90
2017-09-24T20:34:28.992Z,35.50
2017-09-24T20:36:56.696Z,35.50
2017-09-24T20:39:24.158Z,35.50
2017-09-24T20:41:51.800Z,35.60
2017-09-24T20:44:19.372Z,35.80
2017-09-24T20:46:47.121Z,36.30
2017-09-24T20:49:14.557Z,35.90
2017-09-24T20:51:41.985Z,35.80
2017-09-24T20:54:09.416Z,35.80
2017-09-24T20:56:36.877Z,35.80
2017-09-24T20:59:04.330Z,35.60
2017-09-24T21:01:31.777Z,35.90
2017-09-24T21:03:59.215Z,36.10
2017-09-24T21:06:26.705Z,36.10
2017-09-24T21:08:54.245Z,36.00
2017-09-24T21:11:22.010Z,36.10
2017-09-24T21:13:49.668Z,36.80
2017-09-24T21:16:17.201Z,36.10
2017-09-24T21:18:44.625Z,36.10
2017-09-24T21:21:12.068Z,36.10
2017-09-24T21:23:39.493Z,36.80
2017-09-24T21:26:07.053Z,37.30
2017-09-24T21:28:34.481Z,37.20
2017-09-24T21:31:01.968Z,37.30
2017-09-24T21:33:29.401Z,37.20
2017-09-24T21:35:56.836Z,37.20
2017-09-24T21:38:24.340Z,38.00
2017-09-24T21:40:51.807Z,37.40
2017-09-24T21:43:19.433Z,37.20
2017-09-24T21:45:46.865Z,37.00
2017-09-24T21:48:15.389Z,37.20
2017-09-24T21:50:42.816Z,37.10
2017-09-24T21:53:10.253Z,37.00
2017-09-24T21:55:37.685Z,37.40
2017-09-24T21:58:05.216Z,37.80
2017-09-24T22:00:32.641Z,37.60
2017-09-24T22:03:00.077Z,37.50
2017-09-24T22:05:27.516Z,37.40
2017-09-24T22:07:55.037Z,37.40
2017-09-24T22:10:22.673Z,37.60
2017-09-24T22:12:50.261Z,37.60
2017-09-24T22:15:17.915Z,37.50
2017-09-24T22:17:45.356Z,37.50
2017-09-24T22:20:12.934Z,37.70
2017-09-24T22:22:40.587Z,37.40
2017-09-24T22:25:08.153Z,37.70
2017-09-24T22:27:35.592Z,37.50
2017-09-24T22:30:03.073Z,37.40
2017-09-24T22:32:30.521Z,37.70
2017-09-24T22:34:58.157Z,38.00
2017-09-24T22:37:25.656Z,37.70
2017-09-24T22:39:53.205Z,37.90
2017-09-24T22:42:20.653Z,37.90
2017-09-24T22:44:48.114Z,37.70
2017-09-24T22:47:15.565Z,37.90
2017-09-24T22:49:43.328Z,37.50
2017-09-24T22:52:10.765Z,37.50
2017-09-24T22:54:38.240Z,37.80
2017-09-24T22:57:05.877Z,37.90
2017-09-24T22:59:33.340Z,37.90
2017-09-24T23:02:00.790Z,37.50
2017-09-24T23:04:28.372Z,37.80
2017-09-24T23:06:56.009Z,38.00
2017-09-24T23:09:23.511Z,37.90
2017-09-24T23:11:50.955Z,38.00
2017-09-24T23:14:18.424Z,38.30
2017-09-24T23:16:45.865Z,38.00
2017-09-24T23:19:13.425Z,38.10
2017-09-24T23:21:40.848Z,38.20
2017-09-24T23:24:09.252Z,38.20
2017-09-24T23:26:36.884Z,38.20
2017-09-24T23:29:04.472Z,38.20
2017-09-24T23:31:32.108Z,38.60
2017-09-24T23:33:59.548Z,38.40
2017-09-24T23:36:28.081Z,38.40
2017-09-24T23:38:55.524Z,38.40
2017-09-24T23:41:23.292Z,38.80
2017-09-24T23:43:50.744Z,38.60
2017-09-24T23:46:18.378Z,38.80
2017-09-24T23:48:45.862Z,38.50
2017-09-24T23:51:13.420Z,38.50
2017-09-24T23:53:40.857Z,38.70
2017-09-24T23:56:08.300Z,38.60
2017-09-24T23:58:35.730Z,39.00
